Dolph, Arkansas
Current Conditions -  °F | °C
As of 3:53 PM on Thursday 27 Nov 2014 (Local Time) from KBPK Reporting Station
Clear Clear  
Wind Chill:   Ceiling: Unl
Heat Index:   Visibility: 9mi
Dew Point: -6°   Wind: 0mph
Humidity: 43%   Direction: NA
Pressure: 30.43"   Gusts: NA
Location:  36.23°N, 92.11°W
Report Text: KBPK 272153Z AUTO 00000KT 9SM CLR 06/M06 A3043 RMK AO2 SLP311 T00611056
Loading
Personal Weather Stations






























Interactive Weather Map New forecast layout! Learn more

10-Day Weather Forecast

Advertisements
Track Severe Weather on mobile